Time;durP1;ratioP1;P1;durP2;ratioP2;P2;SDS_P1;SDS_P2;PMS_P1;PMS_P2;Temp;Humidity;BMP_temperature;BMP_pressure;BME280_temperature;BME280_humidity;BME280_pressure;Samples;Min_cycle;Max_cycle;Signal;HPM_P1;HPM_P2
2020/12/23 00:01:06;;;;;;;53.33;27.02;;;9.50;99.90;;;;;;5076972;28;20033;-69
2020/12/23 00:03:31;;;;;;;53.08;27.60;;;9.50;99.90;;;;;;5076663;28;20029;-69
2020/12/23 00:05:57;;;;;;;56.30;29.38;;;9.50;99.90;;;;;;5075633;28;20059;-69
2020/12/23 00:08:22;;;;;;;51.17;28.73;;;9.50;99.90;;;;;;5076569;28;20036;-69
2020/12/23 00:10:48;;;;;;;52.40;26.40;;;9.50;99.90;;;;;;5075281;28;20111;-69
2020/12/23 00:13:15;;;;;;;51.58;28.42;;;9.50;99.90;;;;;;5076759;28;20036;-69
2020/12/23 00:15:41;;;;;;;55.03;27.70;;;9.50;99.90;;;;;;5076412;28;20066;-69
2020/12/23 00:18:06;;;;;;;51.40;28.40;;;9.50;99.90;;;;;;5076680;28;20033;-69
2020/12/23 00:20:32;;;;;;;57.30;28.50;;;9.40;99.90;;;;;;5076632;28;20515;-69
2020/12/23 00:22:57;;;;;;;55.42;29.08;;;9.50;99.90;;;;;;5075329;28;20450;-69
2020/12/23 00:25:23;;;;;;;53.60;28.45;;;9.50;99.90;;;;;;5074764;28;20031;-69
2020/12/23 00:27:49;;;;;;;55.60;28.73;;;9.50;99.90;;;;;;5076485;28;20025;-69
2020/12/23 00:30:14;;;;;;;52.20;27.42;;;9.50;99.90;;;;;;5076436;28;20462;-69
2020/12/23 00:32:40;;;;;;;55.67;29.08;;;9.50;99.90;;;;;;5076330;28;20021;-69
2020/12/23 00:35:05;;;;;;;56.42;27.35;;;9.50;99.90;;;;;;5076104;28;20484;-69
2020/12/23 00:37:31;;;;;;;55.13;27.23;;;9.50;99.90;;;;;;5076030;28;20501;-69
2020/12/23 00:39:57;;;;;;;53.70;25.50;;;9.50;99.90;;;;;;5076248;28;20511;-69
2020/12/23 00:42:23;;;;;;;48.17;25.27;;;9.60;99.90;;;;;;5076250;28;20496;-69
2020/12/23 00:44:49;;;;;;;49.92;23.20;;;9.60;99.90;;;;;;5075845;28;20453;-69
2020/12/23 00:47:14;;;;;;;44.85;23.63;;;9.60;99.90;;;;;;5076212;28;20064;-69
2020/12/23 00:49:40;;;;;;;46.05;23.40;;;9.60;99.90;;;;;;5076121;28;20413;-69
2020/12/23 00:52:05;;;;;;;46.85;23.00;;;9.60;99.90;;;;;;5074079;28;20052;-69
2020/12/23 00:54:31;;;;;;;45.90;23.20;;;9.70;99.90;;;;;;5074231;28;20424;-69
2020/12/23 00:56:56;;;;;;;48.30;25.10;;;9.70;99.90;;;;;;5075956;28;20416;-69
2020/12/23 00:59:22;;;;;;;41.65;21.88;;;9.70;99.90;;;;;;5057456;28;20477;-69
2020/12/23 01:01:48;;;;;;;40.63;21.95;;;9.70;99.90;;;;;;5075855;28;20027;-69
2020/12/23 01:04:14;;;;;;;39.80;21.85;;;9.70;99.90;;;;;;5075273;28;20051;-69
2020/12/23 01:06:40;;;;;;;43.22;22.05;;;9.70;99.90;;;;;;5074511;28;20028;-69
2020/12/23 01:09:05;;;;;;;42.15;23.15;;;9.80;99.90;;;;;;5074224;28;20119;-69
2020/12/23 01:11:31;;;;;;;39.55;21.83;;;9.70;99.90;;;;;;5075641;28;20084;-69
2020/12/23 01:13:56;;;;;;;41.17;22.65;;;9.80;99.90;;;;;;5075390;28;20052;-69
2020/12/23 01:16:22;;;;;;;43.53;21.60;;;9.80;99.90;;;;;;5075599;28;20043;-69
2020/12/23 01:18:49;;;;;;;41.08;22.55;;;9.80;99.90;;;;;;5075013;28;20021;-69
2020/12/23 01:21:15;;;;;;;43.08;23.17;;;9.80;99.90;;;;;;5075502;28;20373;-69
2020/12/23 01:23:42;;;;;;;42.80;22.60;;;9.80;99.90;;;;;;5075149;28;20024;-69
2020/12/23 01:26:08;;;;;;;49.17;23.02;;;9.80;99.90;;;;;;5075366;28;20047;-69
2020/12/23 01:28:34;;;;;;;48.13;23.35;;;9.90;99.90;;;;;;5075345;28;20462;-69
2020/12/23 01:30:59;;;;;;;42.35;22.13;;;9.80;99.90;;;;;;5075205;28;20017;-69
2020/12/23 01:33:25;;;;;;;41.80;22.27;;;9.80;99.90;;;;;;5075253;28;20461;-69
2020/12/23 01:35:50;;;;;;;45.20;22.90;;;9.80;99.90;;;;;;5074889;28;20035;-69
2020/12/23 01:38:16;;;;;;;45.67;23.10;;;9.80;99.90;;;;;;5075111;28;20035;-69
2020/12/23 01:40:41;;;;;;;43.92;22.67;;;9.80;99.90;;;;;;5074766;28;20024;-69
2020/12/23 01:43:09;;;;;;;44.30;23.27;;;9.80;99.90;;;;;;5075037;28;20078;-69
2020/12/23 01:45:35;;;;;;;43.53;23.58;;;9.90;99.90;;;;;;5073465;28;20382;-69
2020/12/23 01:48:17;;;;;;;45.38;23.80;;;9.90;99.90;;;;;;5074934;28;20056;-69
2020/12/23 01:50:43;;;;;;;46.97;24.10;;;9.80;99.90;;;;;;5074468;28;20048;-69
2020/12/23 01:53:09;;;;;;;44.72;23.08;;;9.90;99.90;;;;;;5074300;28;20028;-69
2020/12/23 01:55:35;;;;;;;46.95;23.98;;;10.00;99.90;;;;;;5074377;28;20461;-69
2020/12/23 01:58:02;;;;;;;48.42;24.75;;;10.00;99.90;;;;;;5074500;28;20065;-69
2020/12/23 02:00:27;;;;;;;50.38;24.33;;;9.90;99.90;;;;;;5074683;28;20051;-69
2020/12/23 02:02:56;;;;;;;50.90;25.27;;;10.00;99.90;;;;;;5074412;28;20469;-69
2020/12/23 02:05:22;;;;;;;44.30;22.63;;;9.90;99.90;;;;;;5074628;28;20032;-69
2020/12/23 02:07:49;;;;;;;46.60;24.85;;;9.90;99.90;;;;;;5073408;28;20043;-69
2020/12/23 02:10:14;;;;;;;48.50;25.08;;;9.90;99.90;;;;;;5074281;28;20087;-69
2020/12/23 02:12:41;;;;;;;49.00;24.48;;;9.90;99.90;;;;;;5074439;28;20029;-69
2020/12/23 02:15:11;;;;;;;47.05;24.27;;;9.90;99.90;;;;;;5074446;28;20033;-69
2020/12/23 02:17:38;;;;;;;48.25;25.17;;;9.90;99.90;;;;;;5074412;28;20044;-69
2020/12/23 02:20:06;;;;;;;48.42;24.73;;;9.80;99.90;;;;;;5074415;28;20071;-69
2020/12/23 02:22:31;;;;;;;47.53;24.48;;;9.90;99.90;;;;;;5072568;28;20059;-69
2020/12/23 02:24:57;;;;;;;48.03;25.45;;;9.90;99.90;;;;;;5074045;28;20430;-69
2020/12/23 02:27:24;;;;;;;55.53;26.08;;;9.90;99.90;;;;;;5074046;28;20052;-69
2020/12/23 02:29:52;;;;;;;45.58;24.63;;;9.90;99.90;;;;;;5074266;28;20017;-69
2020/12/23 02:32:19;;;;;;;47.97;25.30;;;9.90;99.90;;;;;;5073602;28;20119;-69
2020/12/23 02:34:45;;;;;;;55.42;26.73;;;9.90;99.90;;;;;;5074233;28;20078;-69
2020/12/23 02:37:11;;;;;;;56.63;26.88;;;9.80;99.90;;;;;;5074174;28;20027;-69
2020/12/23 02:39:38;;;;;;;50.70;26.33;;;9.80;99.90;;;;;;5073890;28;20103;-69
2020/12/23 02:42:05;;;;;;;53.78;25.52;;;9.80;99.90;;;;;;5074159;28;20457;-69
2020/12/23 02:44:31;;;;;;;60.58;28.67;;;9.80;99.90;;;;;;5074079;28;20081;-69
2020/12/23 02:47:00;;;;;;;56.67;26.73;;;9.80;99.90;;;;;;5074068;28;20059;-69
2020/12/23 02:49:26;;;;;;;62.17;29.08;;;9.70;99.90;;;;;;5074063;28;20029;-69
2020/12/23 02:51:53;;;;;;;57.10;28.65;;;9.80;99.90;;;;;;5073336;28;20486;-69
2020/12/23 02:54:19;;;;;;;56.22;28.80;;;9.80;99.90;;;;;;5072178;28;20074;-69
2020/12/23 02:56:45;;;;;;;58.47;28.95;;;9.70;99.90;;;;;;5073973;28;20361;-69
2020/12/23 02:59:10;;;;;;;57.03;28.13;;;9.80;99.90;;;;;;5072686;28;20115;-69
2020/12/23 03:01:36;;;;;;;56.97;26.75;;;9.70;99.90;;;;;;5073918;28;20060;-69
2020/12/23 03:04:02;;;;;;;55.00;27.35;;;9.80;99.90;;;;;;5073925;28;20031;-69
2020/12/23 03:06:28;;;;;;;53.35;27.42;;;9.70;99.90;;;;;;5073876;28;20028;-69
2020/12/23 03:08:54;;;;;;;51.38;25.88;;;9.80;99.90;;;;;;5077378;28;20513;-69
2020/12/23 03:11:19;;;;;;;57.13;28.02;;;9.70;99.90;;;;;;5077593;28;20025;-69
2020/12/23 03:13:45;;;;;;;56.97;28.63;;;9.70;99.90;;;;;;5077965;28;20103;-68
2020/12/23 03:16:10;;;;;;;54.45;26.85;;;9.80;99.90;;;;;;5077609;28;20090;-69
2020/12/23 03:18:39;;;;;;;57.58;26.63;;;9.80;99.90;;;;;;5077839;28;20108;-69
2020/12/23 03:21:08;;;;;;;56.15;27.30;;;9.80;99.90;;;;;;5077776;28;20029;-69
2020/12/23 03:23:34;;;;;;;59.72;28.13;;;9.70;99.90;;;;;;5077503;28;20371;-69
2020/12/23 03:26:00;;;;;;;58.22;27.80;;;9.70;99.90;;;;;;5077678;28;20408;-69
2020/12/23 03:28:26;;;;;;;59.53;28.42;;;9.80;99.90;;;;;;5077647;28;20024;-69
2020/12/23 03:30:51;;;;;;;58.20;28.67;;;9.70;99.90;;;;;;5077545;28;20037;-69
2020/12/23 03:33:17;;;;;;;55.63;27.23;;;9.70;99.90;;;;;;5077254;28;20020;-69
2020/12/23 03:35:43;;;;;;;59.97;27.23;;;9.70;99.90;;;;;;5075669;28;20026;-69
2020/12/23 03:38:08;;;;;;;54.58;28.20;;;9.70;99.90;;;;;;5075606;28;20048;-69
2020/12/23 03:40:34;;;;;;;63.78;29.35;;;9.70;99.90;;;;;;5077367;28;20041;-69
2020/12/23 03:42:59;;;;;;;58.80;28.23;;;9.70;99.90;;;;;;5077325;28;20031;-69
2020/12/23 03:45:26;;;;;;;60.97;28.60;;;9.70;99.90;;;;;;5077001;28;20104;-69
2020/12/23 03:47:51;;;;;;;60.38;27.80;;;9.70;99.90;;;;;;5076706;28;20033;-69
2020/12/23 03:50:17;;;;;;;61.58;29.95;;;9.70;99.90;;;;;;5075788;28;20102;-69
2020/12/23 03:52:42;;;;;;;58.17;27.73;;;9.80;99.90;;;;;;5076820;28;20032;-69
2020/12/23 03:55:09;;;;;;;62.92;28.48;;;9.70;99.90;;;;;;5058921;28;20063;-68
2020/12/23 03:57:34;;;;;;;57.40;28.10;;;9.70;99.90;;;;;;5075599;28;20025;-68
2020/12/23 04:00:03;;;;;;;58.92;29.23;;;9.80;99.90;;;;;;5077007;28;20032;-69
2020/12/23 04:02:29;;;;;;;65.22;30.13;;;9.70;99.90;;;;;;5076977;28;20021;-69
2020/12/23 04:04:54;;;;;;;59.50;29.08;;;9.80;99.90;;;;;;5076936;28;20441;-69
2020/12/23 04:07:20;;;;;;;57.63;27.85;;;9.80;99.90;;;;;;5076894;28;20111;-69
2020/12/23 04:09:45;;;;;;;53.40;27.75;;;9.80;99.90;;;;;;5076859;28;20120;-69
2020/12/23 04:12:11;;;;;;;64.63;29.90;;;9.80;99.90;;;;;;5076730;28;20064;-69
2020/12/23 04:14:37;;;;;;;59.05;28.20;;;9.80;99.90;;;;;;5074957;28;20025;-69
2020/12/23 04:17:02;;;;;;;58.75;30.27;;;9.80;99.90;;;;;;5076742;28;20021;-69
2020/12/23 04:19:28;;;;;;;62.17;30.80;;;9.80;99.90;;;;;;5075684;28;20070;-69
2020/12/23 04:21:53;;;;;;;59.47;30.20;;;9.80;99.90;;;;;;5076648;28;20025;-69
2020/12/23 04:24:19;;;;;;;59.20;30.20;;;9.80;99.90;;;;;;5076316;28;20020;-69
2020/12/23 04:26:44;;;;;;;64.60;29.65;;;9.80;99.90;;;;;;5076291;28;20074;-69
2020/12/23 04:29:10;;;;;;;61.88;29.42;;;9.80;99.90;;;;;;5075974;28;20025;-69
2020/12/23 04:31:35;;;;;;;62.42;30.23;;;9.80;99.90;;;;;;5074873;28;20052;-69
2020/12/23 04:34:01;;;;;;;68.72;29.30;;;9.80;99.90;;;;;;5076149;28;20052;-69
2020/12/23 04:36:26;;;;;;;65.07;31.40;;;9.80;99.90;;;;;;5076366;28;20025;-69
2020/12/23 04:38:52;;;;;;;76.50;32.08;;;9.80;99.90;;;;;;5076350;28;20055;-69
2020/12/23 04:41:17;;;;;;;67.78;31.60;;;9.80;99.90;;;;;;5074489;28;20074;-69
2020/12/23 04:43:43;;;;;;;60.65;30.13;;;9.80;99.90;;;;;;5076244;28;20029;-69
2020/12/23 04:46:13;;;;;;;68.53;29.88;;;9.80;99.90;;;;;;5076206;28;20031;-69
2020/12/23 04:48:41;;;;;;;59.35;28.63;;;9.80;99.90;;;;;;5076158;28;20032;-69
2020/12/23 04:51:12;;;;;;;63.35;30.48;;;9.80;99.90;;;;;;5075588;28;20140;-69
2020/12/23 04:53:38;;;;;;;71.28;33.08;;;9.80;99.90;;;;;;5076031;28;20016;-69
2020/12/23 04:56:04;;;;;;;74.05;32.42;;;9.80;99.90;;;;;;5074480;28;20385;-69
2020/12/23 04:58:30;;;;;;;74.63;33.88;;;9.80;99.90;;;;;;5075977;28;20155;-69
2020/12/23 05:00:56;;;;;;;74.07;32.15;;;9.80;99.90;;;;;;5075622;28;20066;-69
2020/12/23 05:03:21;;;;;;;64.97;31.85;;;9.80;99.90;;;;;;5075878;28;20021;-69
2020/12/23 05:05:47;;;;;;;79.05;31.90;;;9.80;99.90;;;;;;5075826;28;20063;-69
2020/12/23 05:08:12;;;;;;;80.03;33.75;;;9.80;99.90;;;;;;5075505;28;20020;-69
2020/12/23 05:10:40;;;;;;;79.82;34.63;;;9.80;99.90;;;;;;5075397;28;20021;-69
2020/12/23 05:13:06;;;;;;;84.63;32.85;;;9.80;99.90;;;;;;5075320;28;20039;-69
2020/12/23 05:15:34;;;;;;;77.88;34.22;;;9.90;99.90;;;;;;5073815;28;20111;-69
2020/12/23 05:18:01;;;;;;;74.38;34.70;;;9.80;99.90;;;;;;5073732;28;20016;-69
2020/12/23 05:20:26;;;;;;;82.28;35.38;;;9.80;99.90;;;;;;5074950;28;20028;-69
2020/12/23 05:22:53;;;;;;;82.72;34.20;;;9.80;99.90;;;;;;5075484;28;20020;-69
2020/12/23 05:25:19;;;;;;;89.72;35.45;;;9.80;99.90;;;;;;5075122;28;20408;-69
2020/12/23 05:27:48;;;;;;;89.55;35.47;;;9.80;99.90;;;;;;5075388;28;20365;-69
2020/12/23 05:30:14;;;;;;;80.05;34.47;;;9.80;99.90;;;;;;5074998;28;20059;-69
2020/12/23 05:32:41;;;;;;;81.80;34.20;;;9.90;99.90;;;;;;5074486;28;20051;-69
2020/12/23 05:35:06;;;;;;;81.93;34.20;;;9.80;99.90;;;;;;5074673;28;20028;-69
2020/12/23 05:37:32;;;;;;;84.28;35.38;;;9.80;99.90;;;;;;5074885;28;20461;-69
2020/12/23 05:39:58;;;;;;;82.25;34.97;;;9.90;99.90;;;;;;5075124;28;20073;-69
2020/12/23 05:42:26;;;;;;;82.80;37.03;;;9.80;99.90;;;;;;5075095;28;20036;-69
2020/12/23 05:44:53;;;;;;;91.32;36.13;;;9.90;99.90;;;;;;5075013;28;20031;-69
2020/12/23 05:47:21;;;;;;;86.78;37.10;;;9.80;99.90;;;;;;5073824;28;20410;-69
2020/12/23 05:49:48;;;;;;;92.65;37.88;;;9.90;99.90;;;;;;5074926;28;20020;-69
2020/12/23 05:52:14;;;;;;;99.00;38.60;;;9.80;99.90;;;;;;5074160;28;20393;-68
2020/12/23 05:54:40;;;;;;;97.15;37.30;;;9.80;99.90;;;;;;5074554;28;20017;-68
2020/12/23 05:57:06;;;;;;;94.97;39.63;;;9.80;99.90;;;;;;5073792;28;20032;-68
2020/12/23 05:59:31;;;;;;;102.60;39.08;;;9.80;99.90;;;;;;5074186;28;20021;-68
2020/12/23 06:01:59;;;;;;;101.65;40.58;;;9.80;99.90;;;;;;5074679;28;20408;-69
2020/12/23 06:04:27;;;;;;;100.15;39.38;;;9.80;99.90;;;;;;5074087;28;20028;-70
2020/12/23 06:06:55;;;;;;;102.95;40.38;;;9.80;99.90;;;;;;5074609;28;20052;-70
2020/12/23 06:09:30;;;;;;;105.15;40.47;;;9.80;99.90;;;;;;5073385;28;20454;-70
2020/12/23 06:11:56;;;;;;;107.13;40.35;;;9.80;99.90;;;;;;5074191;28;20025;-70
2020/12/23 06:14:24;;;;;;;112.85;41.28;;;9.80;99.90;;;;;;5074478;28;20033;-70
2020/12/23 06:17:11;;;;;;;105.60;41.25;;;9.80;99.90;;;;;;5074424;28;20424;-70
2020/12/23 06:19:37;;;;;;;111.55;40.47;;;9.80;99.90;;;;;;5072583;28;20448;-70
2020/12/23 06:22:05;;;;;;;114.35;41.90;;;9.80;99.90;;;;;;5072959;28;20044;-70
2020/12/23 06:24:31;;;;;;;112.68;40.38;;;9.80;99.90;;;;;;5074370;28;20020;-70
2020/12/23 06:26:59;;;;;;;121.35;41.70;;;9.80;99.90;;;;;;5074064;28;20027;-70
2020/12/23 06:29:27;;;;;;;109.50;41.33;;;9.80;99.90;;;;;;5074052;28;20020;-70
2020/12/23 06:31:59;;;;;;;115.85;43.05;;;9.80;99.90;;;;;;5074135;28;20040;-70
2020/12/23 06:34:27;;;;;;;109.57;41.10;;;9.80;99.90;;;;;;5074271;28;20033;-70
2020/12/23 06:36:54;;;;;;;116.93;41.88;;;9.80;99.90;;;;;;5072780;28;20028;-70
2020/12/23 06:39:40;;;;;;;122.25;42.20;;;9.80;99.90;;;;;;5073909;28;20021;-70
2020/12/23 06:47:22;;;;;;;143.23;54.65;;;9.80;99.90;;;;;;5089989;28;20387;-70
2020/12/23 06:49:53;;;;;;;115.30;43.20;;;9.80;99.90;;;;;;5091056;28;20039;-70
2020/12/23 06:52:27;;;;;;;115.43;42.90;;;9.80;99.90;;;;;;5090982;28;20019;-69
2020/12/23 06:55:09;;;;;;;117.55;41.63;;;9.80;99.90;;;;;;5090393;28;20017;-70
2020/12/23 07:03:07;;;;;;;124.97;43.95;;;9.80;99.90;;;;;;5111047;27;20351;-69
2020/12/23 07:05:41;;;;;;;118.28;42.13;;;9.90;99.90;;;;;;5102372;28;20028;-69
2020/12/23 07:08:11;;;;;;;117.47;42.67;;;9.90;99.90;;;;;;5099130;28;20103;-70
2020/12/23 07:10:41;;;;;;;122.35;42.63;;;9.90;99.90;;;;;;5091514;28;20020;-70
2020/12/23 07:13:11;;;;;;;126.90;45.30;;;9.90;99.90;;;;;;5091330;28;20101;-70
2020/12/23 07:15:39;;;;;;;129.25;45.70;;;9.90;99.90;;;;;;5091023;28;20095;-70
2020/12/23 07:18:10;;;;;;;126.88;43.20;;;9.90;99.90;;;;;;5104571;28;20146;-70
2020/12/23 07:20:58;;;;;;;131.07;44.47;;;9.90;99.90;;;;;;5096126;28;20016;-69
2020/12/23 07:23:26;;;;;;;127.35;44.45;;;9.90;99.90;;;;;;5096883;28;20461;-70
2020/12/23 07:25:53;;;;;;;129.27;44.83;;;9.90;99.90;;;;;;5111507;28;20530;-70
2020/12/23 07:28:39;;;;;;;129.82;42.35;;;10.00;99.90;;;;;;5111372;28;20046;-70
2020/12/23 07:31:06;;;;;;;137.80;44.63;;;10.00;99.90;;;;;;5111206;28;20111;-70
2020/12/23 07:33:33;;;;;;;134.43;44.97;;;10.00;99.90;;;;;;5111254;28;20030;-70
2020/12/23 07:36:00;;;;;;;146.70;45.35;;;10.00;99.90;;;;;;5111019;28;20030;-70
2020/12/23 07:38:30;;;;;;;126.13;40.97;;;10.00;99.90;;;;;;5109342;28;20023;-70
2020/12/23 07:40:55;;;;;;;131.02;42.55;;;10.00;99.90;;;;;;5092161;28;20025;-70
2020/12/23 07:43:22;;;;;;;134.20;42.00;;;10.10;99.90;;;;;;5089014;28;20039;-70
2020/12/23 07:45:48;;;;;;;138.68;43.08;;;10.10;99.90;;;;;;5090725;28;20021;-70
2020/12/23 07:48:18;;;;;;;123.80;40.72;;;10.10;99.90;;;;;;5090394;28;20439;-70
2020/12/23 07:50:47;;;;;;;124.03;41.63;;;10.10;99.90;;;;;;5090652;28;20078;-70
2020/12/23 07:53:22;;;;;;;119.55;41.00;;;10.20;99.90;;;;;;5108414;28;20047;-70
2020/12/23 07:55:50;;;;;;;130.95;42.35;;;10.20;99.90;;;;;;5110027;28;20024;-70
2020/12/23 07:58:16;;;;;;;118.32;39.75;;;10.20;99.90;;;;;;5110864;28;20020;-70
2020/12/23 08:00:44;;;;;;;113.68;38.28;;;10.30;99.90;;;;;;5106017;28;20077;-70
2020/12/23 08:03:10;;;;;;;120.05;39.67;;;10.30;99.90;;;;;;5090031;28;20024;-70
2020/12/23 08:05:37;;;;;;;113.40;38.40;;;10.30;99.90;;;;;;5088851;28;20020;-70
2020/12/23 08:08:03;;;;;;;118.97;38.05;;;10.30;99.90;;;;;;5090280;28;20027;-70
2020/12/23 08:10:29;;;;;;;115.20;38.67;;;10.40;99.90;;;;;;5090295;28;20092;-70
2020/12/23 08:12:56;;;;;;;114.75;38.97;;;10.30;99.90;;;;;;5084576;28;20362;-70
2020/12/23 08:15:23;;;;;;;109.00;34.33;;;10.40;99.90;;;;;;5076690;28;20350;-70
2020/12/23 08:17:58;;;;;;;105.95;36.63;;;10.40;99.90;;;;;;5076720;28;20020;-70
2020/12/23 08:20:23;;;;;;;114.50;36.15;;;10.40;99.90;;;;;;5076315;28;20024;-70
2020/12/23 08:22:49;;;;;;;104.82;37.20;;;10.40;99.90;;;;;;5076550;28;20033;-70
2020/12/23 08:25:17;;;;;;;105.60;38.15;;;10.50;99.90;;;;;;5075986;28;20123;-70
2020/12/23 08:27:45;;;;;;;104.80;34.72;;;10.50;99.90;;;;;;5076517;28;20025;-70
2020/12/23 08:30:16;;;;;;;106.68;35.33;;;10.50;99.90;;;;;;5078679;28;20024;-70
2020/12/23 08:32:53;;;;;;;103.95;33.75;;;10.60;99.90;;;;;;5081233;28;20408;-70
2020/12/23 08:35:20;;;;;;;85.47;31.48;;;10.60;99.90;;;;;;5074783;28;20025;-70
2020/12/23 08:37:45;;;;;;;89.28;31.13;;;10.60;99.90;;;;;;5075787;28;20025;-70
2020/12/23 08:40:14;;;;;;;90.18;31.38;;;10.60;99.90;;;;;;5081000;28;20032;-70
2020/12/23 08:42:50;;;;;;;79.15;29.05;;;10.60;99.90;;;;;;5076151;28;20078;-70
2020/12/23 08:45:30;;;;;;;76.68;29.17;;;10.70;99.90;;;;;;5075557;28;20017;-70
2020/12/23 08:47:57;;;;;;;69.20;26.00;;;10.80;99.90;;;;;;5088065;28;20024;-70
2020/12/23 08:50:25;;;;;;;60.53;24.42;;;10.80;99.90;;;;;;5096019;28;20050;-70
2020/12/23 08:52:52;;;;;;;58.05;23.77;;;10.80;99.90;;;;;;5096040;28;20548;-70
2020/12/23 08:55:23;;;;;;;53.47;22.40;;;10.90;99.90;;;;;;5095932;28;20028;-70
2020/12/23 08:58:06;;;;;;;53.33;22.27;;;10.90;99.90;;;;;;5095259;28;20032;-70
2020/12/23 09:00:32;;;;;;;49.00;21.58;;;11.00;99.90;;;;;;5096041;28;20021;-70
2020/12/23 09:02:58;;;;;;;48.90;21.42;;;11.00;99.90;;;;;;5095691;28;20538;-70
2020/12/23 09:05:27;;;;;;;47.40;20.73;;;11.00;99.90;;;;;;5095921;28;20017;-70
2020/12/23 09:08:09;;;;;;;46.78;20.92;;;11.00;99.90;;;;;;5077567;28;20019;-70
2020/12/23 09:10:37;;;;;;;41.90;20.27;;;11.10;99.90;;;;;;5075074;28;20038;-70
2020/12/23 09:13:08;;;;;;;45.13;20.70;;;11.00;99.90;;;;;;5074933;28;20052;-69
2020/12/23 09:15:35;;;;;;;39.13;18.60;;;11.00;99.90;;;;;;5075482;28;20404;-70
2020/12/23 09:18:15;;;;;;;40.38;18.85;;;11.00;99.90;;;;;;5075481;28;20016;-70
2020/12/23 09:20:42;;;;;;;41.47;19.42;;;11.00;99.90;;;;;;5075407;28;20017;-70
2020/12/23 09:23:09;;;;;;;40.38;19.13;;;11.00;99.90;;;;;;5075054;28;20027;-70
2020/12/23 09:25:36;;;;;;;39.42;18.27;;;11.00;99.90;;;;;;5074370;28;20013;-70
2020/12/23 09:28:14;;;;;;;41.65;19.88;;;11.00;99.90;;;;;;5074713;28;20056;-70
2020/12/23 09:30:48;;;;;;;42.83;18.75;;;11.00;99.90;;;;;;5074636;28;20470;-70
2020/12/23 09:33:19;;;;;;;38.55;18.73;;;11.10;99.90;;;;;;5075253;28;20408;-70
2020/12/23 09:35:47;;;;;;;44.03;20.70;;;11.10;99.90;;;;;;5075115;28;20027;-70
2020/12/23 09:38:24;;;;;;;39.78;20.17;;;11.10;99.90;;;;;;5079815;28;20347;-70
2020/12/23 09:40:52;;;;;;;35.90;18.52;;;11.10;99.90;;;;;;5078439;28;20473;-70
2020/12/23 09:43:20;;;;;;;42.13;19.83;;;11.10;99.90;;;;;;5074999;28;20102;-69
2020/12/23 09:45:48;;;;;;;39.65;19.05;;;11.10;99.90;;;;;;5074815;28;20017;-70
2020/12/23 09:48:14;;;;;;;39.85;19.65;;;11.10;99.90;;;;;;5074126;28;20016;-70
2020/12/23 09:50:40;;;;;;;36.10;18.77;;;11.10;99.90;;;;;;5074247;28;20029;-70
2020/12/23 09:53:06;;;;;;;35.50;17.95;;;11.10;99.90;;;;;;5074078;28;20032;-70
2020/12/23 09:55:32;;;;;;;35.33;17.88;;;11.20;99.90;;;;;;5075769;28;20488;-70
2020/12/23 09:57:58;;;;;;;39.60;19.08;;;11.20;99.90;;;;;;5082474;28;20024;-70
2020/12/23 10:00:24;;;;;;;38.53;18.52;;;11.30;99.90;;;;;;5087099;28;20021;-70
2020/12/23 10:02:50;;;;;;;34.95;18.40;;;11.40;99.90;;;;;;5076507;28;20045;-71
2020/12/23 10:05:15;;;;;;;32.90;17.70;;;11.50;99.90;;;;;;5072797;28;20029;-71
2020/12/23 10:07:41;;;;;;;35.30;17.75;;;11.50;99.90;;;;;;5074342;28;20375;-70
2020/12/23 10:10:07;;;;;;;29.77;16.60;;;11.60;99.90;;;;;;5089782;28;20028;-70
2020/12/23 10:12:33;;;;;;;34.25;17.90;;;11.70;99.90;;;;;;5093131;28;20107;-70
2020/12/23 10:14:59;;;;;;;31.88;17.70;;;11.80;99.90;;;;;;5094670;28;20024;-70
2020/12/23 10:17:24;;;;;;;26.65;15.48;;;12.00;99.90;;;;;;5094665;28;20073;-70
2020/12/23 10:19:50;;;;;;;25.42;15.75;;;12.10;99.90;;;;;;5090839;28;20423;-71
2020/12/23 10:22:16;;;;;;;31.35;16.98;;;12.10;99.90;;;;;;5092880;28;20024;-71
2020/12/23 10:24:41;;;;;;;28.08;16.70;;;12.20;99.90;;;;;;5094523;28;20103;-70
2020/12/23 10:27:07;;;;;;;30.55;18.05;;;12.30;99.90;;;;;;5089742;28;20055;-71
2020/12/23 10:29:33;;;;;;;31.73;18.80;;;12.40;99.90;;;;;;5094399;28;20528;-70
2020/12/23 10:31:59;;;;;;;31.25;18.70;;;12.50;99.90;;;;;;5094160;28;20358;-71
2020/12/23 10:34:24;;;;;;;36.83;20.35;;;12.60;99.90;;;;;;5091099;28;20381;-71
2020/12/23 10:36:50;;;;;;;38.50;18.95;;;12.60;99.90;;;;;;5072559;28;20101;-70
2020/12/23 10:39:17;;;;;;;29.08;17.90;;;12.60;99.90;;;;;;5073054;28;20035;-70
2020/12/23 10:41:44;;;;;;;33.17;17.25;;;12.50;99.90;;;;;;5081563;28;20051;-71
2020/12/23 10:44:10;;;;;;;25.42;14.75;;;12.50;99.90;;;;;;5084273;28;20012;-71
2020/12/23 10:46:36;;;;;;;23.38;14.40;;;12.50;99.90;;;;;;5084968;28;20016;-71
2020/12/23 10:49:02;;;;;;;20.92;13.57;;;12.50;99.90;;;;;;5074699;28;20489;-71
2020/12/23 10:51:28;;;;;;;21.05;13.18;;;12.50;99.90;;;;;;5074894;28;20025;-71
2020/12/23 10:53:53;;;;;;;20.65;12.77;;;12.50;99.90;;;;;;5075143;28;20036;-71
2020/12/23 10:56:19;;;;;;;25.63;12.93;;;12.50;99.90;;;;;;5073989;28;20029;-71
2020/12/23 10:58:44;;;;;;;23.13;14.20;;;12.50;99.90;;;;;;5073966;28;20052;-71
2020/12/23 11:01:10;;;;;;;22.17;13.20;;;12.50;99.90;;;;;;5073514;28;20049;-71
2020/12/23 11:03:35;;;;;;;21.60;13.52;;;12.50;99.90;;;;;;5073869;28;20070;-71
2020/12/23 11:06:01;;;;;;;16.27;11.82;;;12.50;99.90;;;;;;5079574;28;20036;-71
2020/12/23 11:08:28;;;;;;;19.58;11.75;;;12.50;99.90;;;;;;5073592;28;20030;-71
2020/12/23 11:10:54;;;;;;;18.80;11.57;;;12.50;99.90;;;;;;5072929;28;20054;-71
2020/12/23 11:13:20;;;;;;;20.85;10.98;;;12.50;99.90;;;;;;5089256;28;20024;-71
2020/12/23 11:15:45;;;;;;;56.45;14.90;;;12.50;99.90;;;;;;5087421;28;20012;-71
2020/12/23 11:18:11;;;;;;;29.05;13.25;;;12.50;99.90;;;;;;5075125;28;20394;-72
2020/12/23 11:20:38;;;;;;;24.63;13.35;;;12.60;99.90;;;;;;5076210;28;20469;-72
2020/12/23 11:23:04;;;;;;;15.00;9.38;;;12.60;99.90;;;;;;5082346;28;20039;-70
2020/12/23 11:25:30;;;;;;;16.92;10.65;;;12.60;99.90;;;;;;5086162;28;20031;-72
2020/12/23 11:27:55;;;;;;;16.33;11.23;;;12.70;99.90;;;;;;5093500;28;20469;-71
2020/12/23 11:30:21;;;;;;;16.23;10.88;;;12.60;99.90;;;;;;5093447;28;20016;-71
2020/12/23 11:32:47;;;;;;;17.58;10.38;;;12.70;99.90;;;;;;5093698;28;20032;-71
2020/12/23 11:35:12;;;;;;;14.68;10.15;;;12.70;99.90;;;;;;5087437;28;20103;-71
2020/12/23 11:37:38;;;;;;;15.88;10.18;;;12.70;99.90;;;;;;5073541;28;20040;-71
2020/12/23 11:40:03;;;;;;;16.52;10.07;;;12.70;99.90;;;;;;5073210;28;20031;-71
2020/12/23 11:42:29;;;;;;;15.60;9.70;;;12.70;99.90;;;;;;5071754;28;20120;-71
2020/12/23 11:44:54;;;;;;;15.85;9.98;;;12.70;99.90;;;;;;5077036;28;20057;-71
2020/12/23 11:47:20;;;;;;;15.60;10.60;;;12.70;99.90;;;;;;5093025;28;20377;-71
2020/12/23 11:49:46;;;;;;;19.23;11.57;;;12.70;99.90;;;;;;5097288;28;20020;-71
2020/12/23 11:52:12;;;;;;;15.35;11.60;;;12.70;99.90;;;;;;5096502;28;20111;-71
2020/12/23 11:54:38;;;;;;;21.35;12.95;;;12.70;99.90;;;;;;5097124;28;20056;-71
2020/12/23 11:57:04;;;;;;;18.83;12.60;;;12.60;99.90;;;;;;5097368;28;20093;-71
2020/12/23 11:59:29;;;;;;;17.52;11.98;;;12.60;99.90;;;;;;5097243;28;20059;-71
2020/12/23 12:01:55;;;;;;;18.77;11.75;;;12.60;99.90;;;;;;5078233;28;20037;-71
2020/12/23 12:04:21;;;;;;;19.88;12.18;;;12.60;99.90;;;;;;5082740;28;20024;-71
2020/12/23 12:06:48;;;;;;;17.75;11.93;;;12.60;99.90;;;;;;5086326;28;20029;-71
2020/12/23 12:09:14;;;;;;;17.52;11.70;;;12.60;99.90;;;;;;5074885;28;20104;-71
2020/12/23 12:11:39;;;;;;;17.98;11.80;;;12.50;99.90;;;;;;5074966;28;20111;-71
2020/12/23 12:14:05;;;;;;;17.25;11.38;;;12.50;99.90;;;;;;5076722;28;20488;-71
2020/12/23 12:16:30;;;;;;;18.08;11.88;;;12.50;99.90;;;;;;5076744;28;20075;-71
2020/12/23 12:18:56;;;;;;;17.90;11.40;;;12.50;99.90;;;;;;5090126;28;20032;-71
2020/12/23 12:21:26;;;;;;;16.40;10.85;;;12.50;99.90;;;;;;5084031;28;20505;-71
2020/12/23 12:23:52;;;;;;;19.67;11.57;;;12.40;99.90;;;;;;5082524;28;20481;-71
2020/12/23 12:26:18;;;;;;;15.00;11.05;;;12.40;99.90;;;;;;5078979;28;20074;-71
2020/12/23 12:28:43;;;;;;;18.95;11.48;;;12.40;99.90;;;;;;5080098;28;20020;-71
2020/12/23 12:31:09;;;;;;;14.95;11.10;;;12.40;99.90;;;;;;5085061;28;20034;-71
2020/12/23 12:33:34;;;;;;;15.68;11.10;;;12.50;99.90;;;;;;5078609;28;20081;-71
2020/12/23 12:36:00;;;;;;;19.35;11.73;;;12.50;99.90;;;;;;5083939;28;20393;-71
2020/12/23 12:38:25;;;;;;;16.98;10.48;;;12.50;99.90;;;;;;5096014;28;20036;-71
2020/12/23 12:40:51;;;;;;;14.65;10.20;;;12.50;99.90;;;;;;5096457;28;20103;-71